createdAt,value
2019-05-19T00:02:08.460Z,26.63
2019-05-19T00:05:10.631Z,26.87
2019-05-19T00:08:13.355Z,33.27
2019-05-19T00:11:15.294Z,32.83
2019-05-19T00:14:17.222Z,33.33
2019-05-19T00:17:19.167Z,30.87
2019-05-19T00:20:21.095Z,30.37
2019-05-19T00:23:23.036Z,30.33
2019-05-19T00:26:24.996Z,30.07
2019-05-19T00:29:26.958Z,36.80
2019-05-19T00:32:30.178Z,33.23
2019-05-19T00:35:32.415Z,32.03
2019-05-19T00:38:34.272Z,30.27
2019-05-19T00:41:36.259Z,33.67
2019-05-19T00:44:38.175Z,27.77
2019-05-19T00:47:40.180Z,27.80
2019-05-19T00:50:42.191Z,27.07
2019-05-19T00:53:44.151Z,30.80
2019-05-19T00:56:46.788Z,28.03
2019-05-19T00:59:48.941Z,30.70
2019-05-19T01:02:50.904Z,34.00
2019-05-19T01:05:52.953Z,32.73
2019-05-19T01:08:54.896Z,33.13
2019-05-19T01:11:56.860Z,27.63
2019-05-19T01:14:58.910Z,29.57
2019-05-19T01:18:00.895Z,33.67
2019-05-19T01:21:02.834Z,29.90
2019-05-19T01:24:04.786Z,31.23
2019-05-19T01:27:06.689Z,28.50
2019-05-19T01:30:10.301Z,32.73
2019-05-19T01:33:12.223Z,33.10
2019-05-19T01:36:14.117Z,29.23
2019-05-19T01:39:16.120Z,33.53
2019-05-19T01:42:18.026Z,31.60
2019-05-19T01:45:20.070Z,34.77
2019-05-19T01:48:22.000Z,30.60
2019-05-19T01:51:23.947Z,38.03
2019-05-19T01:54:25.903Z,31.10
2019-05-19T01:57:27.923Z,30.50
2019-05-19T02:00:29.830Z,25.70
2019-05-19T02:03:31.821Z,30.47
2019-05-19T02:06:33.901Z,31.07
2019-05-19T02:09:35.866Z,30.03
2019-05-19T02:12:37.869Z,25.23
2019-05-19T02:15:39.788Z,22.80
2019-05-19T02:18:41.800Z,22.13
2019-05-19T02:21:43.767Z,30.67
2019-05-19T02:24:45.817Z,30.77
2019-05-19T02:27:47.718Z,27.57
2019-05-19T02:30:49.759Z,29.47
2019-05-19T02:33:51.747Z,23.60
2019-05-19T02:36:53.818Z,31.57
2019-05-19T02:39:55.830Z,29.57
2019-05-19T02:42:59.051Z,35.30
2019-05-19T02:46:02.746Z,33.77
2019-05-19T02:49:05.675Z,34.17
2019-05-19T02:52:10.665Z,31.60
2019-05-19T02:55:13.194Z,31.10
2019-05-19T02:58:15.946Z,37.50
2019-05-19T03:01:17.921Z,33.13
2019-05-19T03:04:19.868Z,33.53
2019-05-19T03:07:21.866Z,39.30
2019-05-19T03:10:23.875Z,33.23
2019-05-19T03:13:25.826Z,34.77
2019-05-19T03:16:27.692Z,34.77
2019-05-19T03:19:29.685Z,36.20
2019-05-19T03:22:31.712Z,47.73
2019-05-19T03:25:33.719Z,34.73
2019-05-19T03:28:35.732Z,34.53
2019-05-19T03:31:59.114Z,26.20
2019-05-19T03:35:01.192Z,27.60
2019-05-19T03:38:03.238Z,21.10
2019-05-19T03:41:05.193Z,21.03
2019-05-19T03:44:07.123Z,22.63
2019-05-19T03:47:09.028Z,20.30
2019-05-19T03:50:10.963Z,23.70
2019-05-19T03:53:14.471Z,22.27
2019-05-19T03:56:16.451Z,19.97
2019-05-19T03:59:18.367Z,19.83
2019-05-19T04:02:20.368Z,25.03
2019-05-19T04:05:22.360Z,18.00
2019-05-19T04:08:24.356Z,16.60
2019-05-19T04:11:26.311Z,19.43
2019-05-19T04:14:28.231Z,17.70
2019-05-19T04:17:30.107Z,18.20
2019-05-19T04:20:32.042Z,19.20
2019-05-19T04:23:33.950Z,17.93
2019-05-19T04:26:35.918Z,16.50
2019-05-19T04:29:39.496Z,17.93
2019-05-19T04:32:41.663Z,17.97
2019-05-19T04:35:43.600Z,22.80
2019-05-19T04:38:45.592Z,18.27
2019-05-19T04:41:47.570Z,18.77
2019-05-19T04:44:49.574Z,18.90
2019-05-19T04:47:51.555Z,20.43
2019-05-19T04:50:53.506Z,20.20
2019-05-19T04:53:55.461Z,20.57
2019-05-19T04:56:57.344Z,20.00
2019-05-19T04:59:59.273Z,19.30
2019-05-19T05:03:01.153Z,21.17
2019-05-19T05:06:03.155Z,19.15
2019-05-19T05:09:06.227Z,19.00
2019-05-19T05:12:08.223Z,18.62
2019-05-19T05:15:10.441Z,17.27
2019-05-19T05:18:12.348Z,17.95
2019-05-19T05:21:17.350Z,17.92
2019-05-19T05:24:19.308Z,22.62
2019-05-19T05:27:21.276Z,17.95
2019-05-19T05:30:23.192Z,17.05
2019-05-19T05:33:25.194Z,18.05
2019-05-19T05:36:27.841Z,17.70
2019-05-19T05:39:30.420Z,14.65
2019-05-19T05:42:32.337Z,15.75
2019-05-19T05:45:34.355Z,16.35
2019-05-19T05:48:36.272Z,17.70
2019-05-19T05:51:38.307Z,16.17
2019-05-19T05:54:40.260Z,17.60
2019-05-19T05:57:42.200Z,15.65
2019-05-19T06:00:44.111Z,15.05
2019-05-19T06:03:46.074Z,16.17
2019-05-19T06:06:48.070Z,17.02
2019-05-19T06:09:50.124Z,15.20
2019-05-19T06:12:52.027Z,15.05
2019-05-19T06:15:54.091Z,14.68
2019-05-19T06:18:56.880Z,13.30
2019-05-19T06:21:59.238Z,14.58
2019-05-19T06:25:01.235Z,14.98
2019-05-19T06:28:03.309Z,15.88
2019-05-19T06:31:05.302Z,15.78
2019-05-19T06:34:07.361Z,14.40
2019-05-19T06:37:09.284Z,12.88
2019-05-19T06:40:12.196Z,13.53
2019-05-19T06:43:14.185Z,14.73
2019-05-19T06:46:16.125Z,14.47
2019-05-19T06:49:18.169Z,15.13
2019-05-19T06:52:20.162Z,14.90
2019-05-19T06:55:22.271Z,14.28
2019-05-19T06:58:24.489Z,14.05
2019-05-19T07:01:26.504Z,14.35
2019-05-19T07:04:28.418Z,15.43
2019-05-19T07:07:30.386Z,14.13
2019-05-19T07:10:32.397Z,13.95
2019-05-19T07:13:34.287Z,15.20
2019-05-19T07:16:36.241Z,13.65
2019-05-19T07:19:38.166Z,14.75
2019-05-19T07:22:40.116Z,14.43
2019-05-19T07:25:42.452Z,16.17
2019-05-19T07:28:44.426Z,15.23
2019-05-19T07:31:46.557Z,16.50
2019-05-19T07:34:48.597Z,13.38
2019-05-19T07:37:50.559Z,14.58
2019-05-19T07:40:52.475Z,10.90
2019-05-19T07:43:54.391Z,12.33
2019-05-19T07:46:56.400Z,13.53
2019-05-19T07:49:58.356Z,11.40
2019-05-19T07:53:00.335Z,10.82
2019-05-19T07:56:02.312Z,11.50
2019-05-19T07:59:07.802Z,14.28
2019-05-19T08:02:08.205Z,11.45
2019-05-19T08:05:10.232Z,10.68
2019-05-19T08:08:12.200Z,8.85
2019-05-19T08:11:14.197Z,10.65
2019-05-19T08:14:16.193Z,11.10
2019-05-19T08:17:18.151Z,11.17
2019-05-19T08:20:20.338Z,10.30
2019-05-19T08:23:22.535Z,11.57
2019-05-19T08:26:24.586Z,9.65
2019-05-19T08:29:26.542Z,10.10
2019-05-19T08:32:28.449Z,10.73
2019-05-19T08:35:30.412Z,9.50
2019-05-19T08:38:32.329Z,9.67
2019-05-19T08:41:34.637Z,9.27
2019-05-19T08:44:36.634Z,9.23
2019-05-19T08:47:38.594Z,8.67
2019-05-19T08:50:40.540Z,9.20
2019-05-19T08:53:42.512Z,8.53
2019-05-19T08:56:44.529Z,10.10
2019-05-19T08:59:46.559Z,11.07
2019-05-19T09:02:48.543Z,9.90
2019-05-19T09:05:50.548Z,11.77
2019-05-19T09:08:52.597Z,10.90
2019-05-19T09:11:54.840Z,9.27
2019-05-19T09:14:56.799Z,9.30
2019-05-19T09:17:58.710Z,11.90
2019-05-19T09:21:01.891Z,10.70
2019-05-19T09:24:03.789Z,10.90
2019-05-19T09:27:05.811Z,10.67
2019-05-19T09:30:09.276Z,9.07
2019-05-19T09:33:11.298Z,8.90
2019-05-19T09:36:13.214Z,10.77
2019-05-19T09:39:15.208Z,10.57
2019-05-19T09:42:17.144Z,12.27
2019-05-19T09:45:19.143Z,10.27
2019-05-19T09:48:21.066Z,8.13
2019-05-19T09:51:23.030Z,9.90
2019-05-19T09:54:24.947Z,12.00
2019-05-19T09:57:26.957Z,11.07
2019-05-19T10:00:29.014Z,9.43
2019-05-19T10:03:30.996Z,8.87
2019-05-19T10:06:33.004Z,8.73
2019-05-19T10:09:56.311Z,8.33
2019-05-19T10:12:58.395Z,9.03
2019-05-19T10:16:00.437Z,8.87
2019-05-19T10:19:03.551Z,9.53
2019-05-19T10:22:05.463Z,9.10
2019-05-19T10:25:21.847Z,8.70
2019-05-19T10:28:13.507Z,8.33
2019-05-19T10:31:15.497Z,10.60
2019-05-19T10:34:17.864Z,8.63
2019-05-19T10:37:19.934Z,7.47
2019-05-19T10:40:21.895Z,9.97
2019-05-19T10:43:23.918Z,8.27
2019-05-19T10:46:26.150Z,10.57
2019-05-19T10:49:28.069Z,8.60
2019-05-19T10:52:30.052Z,8.67
2019-05-19T10:55:36.592Z,10.00
2019-05-19T10:58:35.991Z,7.30
2019-05-19T11:01:38.032Z,8.57
2019-05-19T11:04:39.958Z,10.47
2019-05-19T11:07:41.993Z,10.10
2019-05-19T11:10:43.986Z,8.03
2019-05-19T11:13:46.074Z,8.57
2019-05-19T11:16:48.084Z,9.30
2019-05-19T11:19:51.269Z,9.37
2019-05-19T11:22:53.187Z,8.47
2019-05-19T11:25:55.367Z,8.80
2019-05-19T11:28:57.358Z,8.33
2019-05-19T11:31:59.385Z,8.37
2019-05-19T11:35:01.417Z,9.73
2019-05-19T11:38:03.383Z,6.87
2019-05-19T11:41:05.387Z,7.60
2019-05-19T11:44:07.371Z,5.43
2019-05-19T11:47:09.637Z,6.93
2019-05-19T11:50:11.680Z,7.20
2019-05-19T11:53:14.771Z,7.17
2019-05-19T11:56:16.667Z,7.53
2019-05-19T11:59:18.675Z,5.53
2019-05-19T12:02:20.590Z,5.87
2019-05-19T12:05:22.640Z,5.97
2019-05-19T12:08:24.704Z,6.40
2019-05-19T12:11:26.681Z,7.23
2019-05-19T12:14:28.786Z,5.90
2019-05-19T12:17:30.716Z,6.73
2019-05-19T12:20:32.648Z,7.23
2019-05-19T12:23:34.588Z,8.47
2019-05-19T12:26:36.507Z,8.07
2019-05-19T12:29:38.463Z,8.63
2019-05-19T12:32:40.381Z,7.53
2019-05-19T12:35:42.344Z,8.73
2019-05-19T12:38:44.407Z,6.43
2019-05-19T12:41:46.394Z,7.40
2019-05-19T12:44:48.565Z,7.07
2019-05-19T12:47:51.307Z,7.87
2019-05-19T12:50:53.263Z,9.23
2019-05-19T12:53:55.258Z,6.80
2019-05-19T12:56:57.269Z,7.33
2019-05-19T12:59:59.304Z,9.63
2019-05-19T13:03:01.198Z,8.43
2019-05-19T13:06:03.183Z,8.33
2019-05-19T13:09:05.102Z,8.43
2019-05-19T13:12:07.186Z,8.30
2019-05-19T13:15:09.270Z,8.83
2019-05-19T13:18:11.231Z,7.47
2019-05-19T13:21:13.199Z,7.47
2019-05-19T13:24:15.164Z,7.73
2019-05-19T13:27:17.065Z,6.77
2019-05-19T13:30:19.011Z,10.27
2019-05-19T13:33:20.868Z,7.07
2019-05-19T13:36:22.798Z,7.63
2019-05-19T13:39:24.791Z,8.30
2019-05-19T13:42:26.777Z,7.10
2019-05-19T13:45:28.797Z,7.93
2019-05-19T13:48:30.804Z,10.07
2019-05-19T13:51:32.872Z,10.57
2019-05-19T13:54:34.803Z,7.10
2019-05-19T13:57:36.850Z,7.63
2019-05-19T14:00:38.806Z,8.73
2019-05-19T14:03:42.587Z,8.07
2019-05-19T14:06:46.384Z,8.70
2019-05-19T14:09:49.376Z,8.37
2019-05-19T14:12:51.426Z,9.10
2019-05-19T14:15:53.550Z,7.17
2019-05-19T14:18:55.518Z,8.23
2019-05-19T14:21:57.515Z,7.67
2019-05-19T14:24:59.471Z,9.50
2019-05-19T14:28:02.969Z,8.07
2019-05-19T14:31:05.090Z,8.70
2019-05-19T14:34:08.101Z,6.97
2019-05-19T14:37:10.512Z,8.20
2019-05-19T14:40:13.186Z,8.23
2019-05-19T14:43:17.033Z,6.10
2019-05-19T14:46:20.183Z,9.20
2019-05-19T14:49:22.161Z,8.23
2019-05-19T14:52:24.111Z,8.13
2019-05-19T14:55:26.124Z,7.17
2019-05-19T14:58:28.155Z,6.53
2019-05-19T15:01:30.058Z,6.97
2019-05-19T15:04:32.044Z,8.30
2019-05-19T15:07:34.007Z,9.03
2019-05-19T15:10:38.511Z,6.17
2019-05-19T15:13:40.487Z,7.40
2019-05-19T15:16:42.556Z,6.37
2019-05-19T15:19:46.797Z,6.53
2019-05-19T15:22:48.807Z,7.37
2019-05-19T15:25:50.795Z,6.03
2019-05-19T15:28:52.787Z,6.33
2019-05-19T15:31:55.196Z,6.47
2019-05-19T15:34:57.209Z,6.63
2019-05-19T15:37:59.169Z,10.27
2019-05-19T15:41:01.270Z,5.67
2019-05-19T15:44:04.737Z,6.23
2019-05-19T15:47:06.747Z,6.70
2019-05-19T15:50:10.476Z,7.67
2019-05-19T15:53:12.443Z,6.43
2019-05-19T15:56:14.472Z,7.67
2019-05-19T15:59:16.440Z,5.50
2019-05-19T16:02:18.397Z,6.40
2019-05-19T16:05:24.282Z,6.60
2019-05-19T16:08:26.271Z,7.03
2019-05-19T16:11:28.320Z,6.40
2019-05-19T16:14:30.280Z,6.47
2019-05-19T16:17:33.952Z,6.83
2019-05-19T16:20:35.988Z,8.40
2019-05-19T16:23:37.986Z,7.17
2019-05-19T16:26:39.952Z,8.57
2019-05-19T16:29:44.101Z,11.10
2019-05-19T16:32:46.083Z,9.03
2019-05-19T16:35:52.307Z,7.10
2019-05-19T16:38:54.812Z,5.63
2019-05-19T16:41:58.143Z,6.07
2019-05-19T16:45:00.138Z,6.30
2019-05-19T16:48:02.162Z,7.27
2019-05-19T16:51:04.158Z,8.53
2019-05-19T16:54:14.811Z,10.67
2019-05-19T16:57:16.736Z,4.53
2019-05-19T17:00:19.414Z,7.77
2019-05-19T17:03:22.660Z,9.53
2019-05-19T17:06:28.180Z,8.80
2019-05-19T17:09:30.186Z,7.23
2019-05-19T17:12:37.055Z,6.87
2019-05-19T17:15:41.255Z,5.30
2019-05-19T17:18:43.367Z,5.13
2019-05-19T17:21:47.193Z,6.90
2019-05-19T17:24:52.571Z,7.97
2019-05-19T17:27:59.500Z,5.57
2019-05-19T17:31:07.350Z,6.60
2019-05-19T17:34:09.548Z,8.20
2019-05-19T17:37:18.645Z,10.07
2019-05-19T17:40:20.825Z,7.70
2019-05-19T17:43:24.151Z,5.83
2019-05-19T17:46:26.395Z,6.27
2019-05-19T17:49:28.428Z,5.83
2019-05-19T17:52:33.865Z,7.17
2019-05-19T17:55:37.677Z,6.27
2019-05-19T17:58:40.021Z,7.03
2019-05-19T18:01:42.137Z,7.37
2019-05-19T18:04:44.063Z,8.00
2019-05-19T18:07:46.029Z,6.30
2019-05-19T18:10:49.161Z,6.80
2019-05-19T18:13:52.955Z,7.87
2019-05-19T18:16:56.620Z,6.07
2019-05-19T18:19:58.934Z,5.90
2019-05-19T18:23:01.303Z,6.47
2019-05-19T18:26:07.328Z,6.33
2019-05-19T18:29:10.030Z,10.03
2019-05-19T18:32:14.745Z,5.83
2019-05-19T18:35:17.149Z,7.00
2019-05-19T18:38:20.566Z,8.90
2019-05-19T18:41:22.838Z,7.30
2019-05-19T18:44:24.779Z,7.63
2019-05-19T18:47:26.857Z,9.97
2019-05-19T18:50:28.811Z,6.37
2019-05-19T18:53:30.978Z,7.00
2019-05-19T18:56:33.036Z,7.23
2019-05-19T18:59:46.523Z,6.93
2019-05-19T19:02:40.667Z,14.03
2019-05-19T19:05:42.980Z,7.23
2019-05-19T19:08:45.938Z,10.50
2019-05-19T19:11:47.925Z,11.23
2019-05-19T19:14:49.863Z,9.57
2019-05-19T19:17:52.868Z,11.07
2019-05-19T19:20:57.523Z,9.97
2019-05-19T19:23:59.661Z,9.10
2019-05-19T19:27:03.619Z,10.40
2019-05-19T19:30:07.206Z,8.67
2019-05-19T19:33:09.345Z,8.80
2019-05-19T19:36:13.111Z,7.97
2019-05-19T19:39:22.631Z,7.90
2019-05-19T19:42:24.598Z,7.27
2019-05-19T19:45:26.682Z,8.43
2019-05-19T19:48:29.648Z,12.93
2019-05-19T19:51:31.626Z,8.20
2019-05-19T19:54:35.386Z,7.80
2019-05-19T19:57:39.403Z,8.10
2019-05-19T20:00:46.122Z,8.37
2019-05-19T20:03:49.852Z,8.03
2019-05-19T20:06:51.730Z,15.37
2019-05-19T20:09:55.976Z,8.87
2019-05-19T20:12:59.337Z,9.57
2019-05-19T20:16:02.074Z,10.63
2019-05-19T20:19:05.994Z,9.63
2019-05-19T20:22:10.214Z,9.27
2019-05-19T20:25:12.381Z,8.67
2019-05-19T20:28:14.398Z,10.57
2019-05-19T20:31:16.389Z,10.90
2019-05-19T20:34:18.255Z,10.57
2019-05-19T20:37:21.996Z,10.40
2019-05-19T20:40:24.309Z,12.87
2019-05-19T20:43:26.351Z,12.33
2019-05-19T20:46:28.391Z,18.50
2019-05-19T20:49:30.379Z,13.97
2019-05-19T20:52:32.865Z,13.40
2019-05-19T20:55:34.817Z,14.10
2019-05-19T20:58:36.728Z,14.43
2019-05-19T21:01:38.754Z,15.93
2019-05-19T21:04:40.633Z,16.23
2019-05-19T21:07:42.701Z,15.37
2019-05-19T21:10:44.745Z,18.47
2019-05-19T21:13:46.675Z,15.17
2019-05-19T21:16:50.602Z,16.77
2019-05-19T21:19:53.391Z,15.37
2019-05-19T21:22:55.359Z,18.27
2019-05-19T21:25:57.752Z,14.07
2019-05-19T21:28:59.862Z,17.10
2019-05-19T21:32:01.837Z,16.07
2019-05-19T21:35:05.048Z,17.20
2019-05-19T21:38:07.082Z,15.50
2019-05-19T21:41:09.118Z,15.97
2019-05-19T21:44:11.126Z,17.27
2019-05-19T21:47:13.042Z,17.07
2019-05-19T21:50:15.071Z,16.07
2019-05-19T21:53:16.986Z,18.87
2019-05-19T21:56:18.944Z,19.23
2019-05-19T21:59:20.868Z,20.40
2019-05-19T22:02:22.834Z,23.03
2019-05-19T22:05:24.831Z,23.27
2019-05-19T22:08:26.827Z,20.23
2019-05-19T22:11:28.767Z,26.07
2019-05-19T22:14:30.752Z,26.53
2019-05-19T22:17:32.659Z,22.57
2019-05-19T22:20:34.633Z,26.53
2019-05-19T22:23:36.719Z,23.60
2019-05-19T22:26:38.669Z,26.90
2019-05-19T22:29:40.664Z,24.67
2019-05-19T22:32:42.555Z,29.17
2019-05-19T22:35:44.501Z,26.50
2019-05-19T22:38:46.401Z,24.37
2019-05-19T22:41:48.391Z,30.53
2019-05-19T22:44:50.329Z,28.20
2019-05-19T22:47:52.358Z,31.77
2019-05-19T22:50:54.308Z,38.57
2019-05-19T22:53:56.262Z,34.43
2019-05-19T22:56:58.155Z,34.73
2019-05-19T23:00:00.062Z,37.43
2019-05-19T23:03:02.043Z,34.07
2019-05-19T23:06:03.950Z,38.97
2019-05-19T23:09:05.997Z,39.13
2019-05-19T23:12:08.062Z,35.93
2019-05-19T23:15:10.185Z,38.33
2019-05-19T23:18:12.171Z,35.50
2019-05-19T23:21:14.067Z,38.40
2019-05-19T23:24:16.148Z,35.43
2019-05-19T23:27:18.127Z,39.63
2019-05-19T23:30:20.152Z,41.63
2019-05-19T23:33:22.049Z,46.47
2019-05-19T23:36:24.018Z,41.60
2019-05-19T23:39:25.929Z,43.53
2019-05-19T23:42:27.819Z,47.03
2019-05-19T23:45:29.890Z,48.30
2019-05-19T23:48:31.873Z,39.13
2019-05-19T23:51:33.929Z,47.07
2019-05-19T23:54:35.861Z,46.20
2019-05-19T23:57:37.847Z,46.73
